Terminal Aerodrome Forecast
Issued by NWS

Home | Current Version | Previous Version | Text Only | Print | Product List | Glossary On
Versions: 1 2 3 4 5 6 7 8 9 10 11 12 13 14 15 16 17 18 19 20 21 22 23 24 25 26 27 28
000
FTUS45 KCYS 220520
TAFLAR
TAF
KLAR 220520Z 2206/2306 23012KT P6SM SCT250
     FM221000 24021G30KT P6SM BKN200
     FM221700 24033G40KT P6SM SCT100 BKN150
     FM230000 26028G38KT P6SM OVC100=

USA.gov is the U.S. government's official web portal to all federal, state and local government web resources and services.